Time;durP1;ratioP1;P1;durP2;ratioP2;P2;SDS_P1;SDS_P2;PMS_P1;PMS_P2;Temp;Humidity;BMP_temperature;BMP_pressure;BME280_temperature;BME280_humidity;BME280_pressure;Samples;Min_cycle;Max_cycle;Signal;HPM_P1;HPM_P2
2021/11/06 00:01:37;;;;;;;12.10;9.82;;;;;;;;;;5030491;28;20203;-46
2021/11/06 00:04:03;;;;;;;12.07;9.55;;;;;;;;;;5035386;28;20787;-46
2021/11/06 00:06:29;;;;;;;10.80;9.18;;;;;;;;;;5032238;28;20432;-47
2021/11/06 00:08:55;;;;;;;12.13;9.07;;;;;;;;;;5033746;28;20182;-46
2021/11/06 00:11:22;;;;;;;12.00;9.60;;;;;;;;;;5032472;28;20185;-46
2021/11/06 00:13:48;;;;;;;12.00;9.18;;;;;;;;;;5029983;28;20200;-46
2021/11/06 00:16:14;;;;;;;11.82;9.77;;;;;;;;;;5032590;28;20210;-46
2021/11/06 00:18:40;;;;;;;11.63;9.23;;;;;;;;;;5036267;28;20179;-46
2021/11/06 00:21:06;;;;;;;11.20;9.20;;;;;;;;;;5036349;28;20618;-46
2021/11/06 00:23:32;;;;;;;11.77;9.27;;;;;;;;;;5026482;28;20462;-46
2021/11/06 00:25:58;;;;;;;11.32;9.50;;;;;;;;;;5025051;28;20183;-46
2021/11/06 00:28:24;;;;;;;10.98;8.88;;;;;;;;;;5041740;28;20183;-46
2021/11/06 00:30:50;;;;;;;12.48;9.77;;;;;;;;;;5029073;28;20199;-46
2021/11/06 00:33:16;;;;;;;10.60;9.00;;;;;;;;;;5030889;28;20190;-45
2021/11/06 00:35:42;;;;;;;12.38;9.63;;;;;;;;;;5026803;28;20204;-46
2021/11/06 00:38:08;;;;;;;11.98;9.48;;;;;;;;;;5024190;28;20168;-46
2021/11/06 00:40:34;;;;;;;11.38;9.10;;;;;;;;;;5035739;28;20176;-46
2021/11/06 00:43:00;;;;;;;12.07;9.65;;;;;;;;;;5034919;28;20551;-46
2021/11/06 00:45:26;;;;;;;11.95;9.63;;;;;;;;;;5028617;28;20196;-46
2021/11/06 00:47:52;;;;;;;12.98;9.52;;;;;;;;;;5034952;28;20691;-46
2021/11/06 00:50:18;;;;;;;13.55;10.13;;;;;;;;;;5035310;28;20176;-46
2021/11/06 00:52:46;;;;;;;12.90;9.13;;;;;;;;;;5035730;28;20176;-46
2021/11/06 00:55:12;;;;;;;11.65;9.20;;;;;;;;;;5025665;28;20206;-46
2021/11/06 00:57:38;;;;;;;11.73;8.93;;;;;;;;;;5034650;28;20178;-46
2021/11/06 01:00:09;;;;;;;11.93;8.55;;;;;;;;;;5015757;28;20169;-46
2021/11/06 01:02:35;;;;;;;10.50;8.88;;;;;;;;;;5033228;28;20196;-46
2021/11/06 01:05:01;;;;;;;11.23;8.48;;;;;;;;;;5023661;28;20470;-46
2021/11/06 01:07:27;;;;;;;11.55;9.43;;;;;;;;;;5033200;28;20183;-46
2021/11/06 01:09:53;;;;;;;10.27;8.73;;;;;;;;;;5034997;28;20180;-46
2021/11/06 01:12:19;;;;;;;14.35;9.32;;;;;;;;;;5033947;28;20203;-46
2021/11/06 01:14:45;;;;;;;10.88;9.00;;;;;;;;;;5025632;28;20595;-46
2021/11/06 01:17:11;;;;;;;11.82;9.55;;;;;;;;;;5018581;28;20168;-46
2021/11/06 01:19:37;;;;;;;11.02;8.85;;;;;;;;;;5034853;28;20180;-46
2021/11/06 01:22:03;;;;;;;10.55;8.38;;;;;;;;;;5034664;28;20538;-46
2021/11/06 01:24:29;;;;;;;10.68;8.35;;;;;;;;;;5023296;28;20188;-46
2021/11/06 01:26:56;;;;;;;10.18;8.80;;;;;;;;;;5034543;28;20570;-46
2021/11/06 01:29:22;;;;;;;13.95;9.57;;;;;;;;;;5030668;28;20264;-46
2021/11/06 01:31:48;;;;;;;11.43;9.10;;;;;;;;;;5021885;28;20195;-46
2021/11/06 01:34:14;;;;;;;11.45;8.82;;;;;;;;;;5032999;28;20441;-46
2021/11/06 01:36:40;;;;;;;9.52;8.50;;;;;;;;;;5021409;28;20520;-46
2021/11/06 01:39:06;;;;;;;11.70;8.70;;;;;;;;;;5031185;28;20199;-46
2021/11/06 01:41:34;;;;;;;10.38;8.70;;;;;;;;;;5033816;28;20685;-46
2021/11/06 01:44:00;;;;;;;12.77;9.15;;;;;;;;;;5033462;28;20180;-46
2021/11/06 01:46:26;;;;;;;11.38;8.60;;;;;;;;;;5034503;28;20194;-46
2021/11/06 01:48:52;;;;;;;10.50;8.45;;;;;;;;;;5032136;28;20460;-46
2021/11/06 01:51:18;;;;;;;10.60;8.43;;;;;;;;;;5034396;28;20666;-46
2021/11/06 01:53:45;;;;;;;11.93;8.40;;;;;;;;;;5030944;28;20180;-46
2021/11/06 01:56:13;;;;;;;12.05;9.18;;;;;;;;;;5034045;28;20249;-46
2021/11/06 01:58:42;;;;;;;10.50;8.05;;;;;;;;;;5034057;28;20171;-46
2021/11/06 02:01:08;;;;;;;14.32;9.55;;;;;;;;;;5027198;28;20591;-46
2021/11/06 02:03:34;;;;;;;10.68;8.82;;;;;;;;;;5031493;28;20192;-46
2021/11/06 02:06:00;;;;;;;9.23;7.80;;;;;;;;;;5033716;28;20302;-46
2021/11/06 02:08:26;;;;;;;10.38;8.45;;;;;;;;;;5034413;28;20607;-46
2021/11/06 02:10:53;;;;;;;9.77;8.07;;;;;;;;;;5034093;28;20176;-46
2021/11/06 02:13:19;;;;;;;10.63;8.85;;;;;;;;;;5033009;28;20176;-46
2021/11/06 02:15:45;;;;;;;11.63;9.25;;;;;;;;;;5033465;28;20214;-46
2021/11/06 02:18:11;;;;;;;12.20;8.77;;;;;;;;;;5034309;28;20407;-46
2021/11/06 02:20:37;;;;;;;12.20;9.35;;;;;;;;;;5019527;28;20195;-46
2021/11/06 02:23:04;;;;;;;11.75;8.77;;;;;;;;;;5035209;28;20191;-46
2021/11/06 02:25:30;;;;;;;10.18;8.35;;;;;;;;;;5026619;28;20184;-45
2021/11/06 02:27:56;;;;;;;12.43;9.70;;;;;;;;;;5038193;28;20187;-46
2021/11/06 02:30:22;;;;;;;12.00;9.40;;;;;;;;;;5033885;28;20575;-46
2021/11/06 02:32:49;;;;;;;10.90;8.50;;;;;;;;;;5037572;28;20180;-46
2021/11/06 02:35:15;;;;;;;10.98;8.80;;;;;;;;;;5036401;28;20208;-46
2021/11/06 02:37:42;;;;;;;10.60;8.35;;;;;;;;;;5030586;28;20168;-46
2021/11/06 02:40:09;;;;;;;10.88;8.68;;;;;;;;;;5021484;28;20180;-46
2021/11/06 02:42:36;;;;;;;11.82;8.35;;;;;;;;;;5022606;28;20176;-46
2021/11/06 02:45:03;;;;;;;11.52;8.25;;;;;;;;;;5030012;28;20183;-46
2021/11/06 02:47:29;;;;;;;11.48;8.30;;;;;;;;;;5037324;28;20629;-46
2021/11/06 02:49:55;;;;;;;8.57;7.30;;;;;;;;;;5038078;28;20238;-46
2021/11/06 02:52:21;;;;;;;8.13;6.43;;;;;;;;;;5037586;28;20176;-46
2021/11/06 02:54:47;;;;;;;9.20;6.95;;;;;;;;;;5028542;28;20610;-46
2021/11/06 02:57:14;;;;;;;10.15;7.78;;;;;;;;;;5035416;28;20176;-46
2021/11/06 02:59:39;;;;;;;7.80;7.00;;;;;;;;;;5033787;28;20272;-46
2021/11/06 03:02:06;;;;;;;7.75;6.78;;;;;;;;;;5032673;28;20599;-46
2021/11/06 03:04:39;;;;;;;8.90;7.35;;;;;;;;;;5030108;28;20590;-46
2021/11/06 03:07:06;;;;;;;8.88;7.00;;;;;;;;;;5035753;28;20180;-46
2021/11/06 03:09:38;;;;;;;8.20;6.63;;;;;;;;;;5037216;28;20490;-46
2021/11/06 03:12:04;;;;;;;7.72;6.55;;;;;;;;;;5036273;28;20176;-46
2021/11/06 03:14:31;;;;;;;8.38;7.43;;;;;;;;;;5036498;28;20317;-46
2021/11/06 03:16:57;;;;;;;10.80;7.80;;;;;;;;;;5035596;28;20692;-46
2021/11/06 03:19:23;;;;;;;9.30;6.63;;;;;;;;;;5029888;28;20212;-46
2021/11/06 03:21:49;;;;;;;11.35;7.53;;;;;;;;;;5037766;28;20168;-46
2021/11/06 03:24:15;;;;;;;9.70;7.03;;;;;;;;;;5036799;28;20190;-46
2021/11/06 03:26:41;;;;;;;8.93;7.10;;;;;;;;;;5035837;28;20190;-46
2021/11/06 03:29:07;;;;;;;8.68;6.32;;;;;;;;;;5034428;28;20173;-46
2021/11/06 03:31:33;;;;;;;8.70;6.80;;;;;;;;;;5034771;28;20180;-46
2021/11/06 03:33:59;;;;;;;8.48;6.32;;;;;;;;;;5034715;28;20238;-47
2021/11/06 03:36:25;;;;;;;8.43;6.63;;;;;;;;;;5029315;28;20180;-46
2021/11/06 03:38:51;;;;;;;7.18;6.47;;;;;;;;;;5031722;28;20334;-46
2021/11/06 03:41:17;;;;;;;6.82;6.13;;;;;;;;;;5043465;28;20210;-46
2021/11/06 03:43:43;;;;;;;7.85;6.70;;;;;;;;;;5039366;28;20175;-46
2021/11/06 03:46:09;;;;;;;7.70;6.53;;;;;;;;;;5018864;28;20491;-46
2021/11/06 03:48:35;;;;;;;7.43;6.63;;;;;;;;;;5031225;28;20242;-46
2021/11/06 03:51:01;;;;;;;7.10;6.38;;;;;;;;;;5034999;28;20179;-46
2021/11/06 03:53:27;;;;;;;8.07;6.07;;;;;;;;;;5036095;28;20180;-46
2021/11/06 03:55:53;;;;;;;6.93;6.10;;;;;;;;;;5035074;28;20206;-46
2021/11/06 03:58:19;;;;;;;8.73;6.97;;;;;;;;;;5036916;28;20255;-46
2021/11/06 04:00:45;;;;;;;8.77;6.13;;;;;;;;;;5033122;28;20571;-46
2021/11/06 04:03:11;;;;;;;8.15;6.78;;;;;;;;;;5029848;28;20203;-46
2021/11/06 04:05:37;;;;;;;7.75;6.25;;;;;;;;;;5036267;28;20190;-46
2021/11/06 04:08:03;;;;;;;8.52;6.20;;;;;;;;;;5036337;28;20176;-46
2021/11/06 04:10:29;;;;;;;7.88;6.30;;;;;;;;;;5036400;28;20219;-46
2021/11/06 04:12:55;;;;;;;9.70;6.95;;;;;;;;;;5028466;28;20203;-46
2021/11/06 04:15:21;;;;;;;6.97;5.93;;;;;;;;;;5035597;28;20552;-46
2021/11/06 04:17:47;;;;;;;7.45;6.40;;;;;;;;;;5026525;28;20449;-46
2021/11/06 04:20:14;;;;;;;6.28;5.45;;;;;;;;;;5033027;28;20184;-46
2021/11/06 04:22:40;;;;;;;7.60;5.80;;;;;;;;;;5036357;28;20529;-46
2021/11/06 04:25:06;;;;;;;7.55;6.20;;;;;;;;;;5035486;28;20270;-46
2021/11/06 04:27:32;;;;;;;7.28;6.30;;;;;;;;;;5035919;28;20559;-46
2021/11/06 04:29:58;;;;;;;6.93;5.75;;;;;;;;;;5035137;28;20187;-46
2021/11/06 04:32:24;;;;;;;7.75;6.10;;;;;;;;;;5034585;28;20172;-46
2021/11/06 04:34:50;;;;;;;8.77;6.28;;;;;;;;;;5034502;28;20383;-46
2021/11/06 04:37:16;;;;;;;8.43;6.80;;;;;;;;;;5035992;28;20282;-46
2021/11/06 04:39:42;;;;;;;6.45;5.75;;;;;;;;;;5031390;28;20258;-46
2021/11/06 04:42:08;;;;;;;6.75;5.72;;;;;;;;;;5016316;28;20176;-46
2021/11/06 04:44:35;;;;;;;7.78;6.45;;;;;;;;;;5024251;28;20203;-46
2021/11/06 04:47:01;;;;;;;8.20;6.15;;;;;;;;;;5034303;28;20191;-46
2021/11/06 04:49:27;;;;;;;8.57;6.07;;;;;;;;;;5034657;28;20203;-46
2021/11/06 04:51:53;;;;;;;6.65;5.95;;;;;;;;;;5035814;28;20566;-46
2021/11/06 04:54:19;;;;;;;7.50;6.18;;;;;;;;;;5034915;28;20295;-46
2021/11/06 04:56:47;;;;;;;7.72;6.50;;;;;;;;;;5035436;28;20184;-46
2021/11/06 04:59:13;;;;;;;6.72;5.45;;;;;;;;;;5023536;28;20215;-46
2021/11/06 05:01:39;;;;;;;7.47;6.50;;;;;;;;;;5034186;28;20200;-46
2021/11/06 05:04:05;;;;;;;7.63;6.15;;;;;;;;;;5033775;28;20201;-46
2021/11/06 05:06:31;;;;;;;7.82;6.65;;;;;;;;;;5024930;28;20180;-46
2021/11/06 05:08:57;;;;;;;7.95;6.53;;;;;;;;;;5030772;28;20188;-46
2021/11/06 05:11:23;;;;;;;11.30;6.55;;;;;;;;;;5035264;28;20786;-46
2021/11/06 05:13:49;;;;;;;8.02;6.40;;;;;;;;;;5032779;28;20259;-46
2021/11/06 05:16:15;;;;;;;9.15;6.13;;;;;;;;;;5033837;28;20263;-46
2021/11/06 05:18:41;;;;;;;7.45;6.10;;;;;;;;;;5034559;28;20623;-46
2021/11/06 05:21:07;;;;;;;11.50;6.47;;;;;;;;;;5031304;28;20172;-46
2021/11/06 05:23:33;;;;;;;9.27;6.95;;;;;;;;;;5034398;28;20555;-46
2021/11/06 05:25:59;;;;;;;7.30;5.75;;;;;;;;;;5033354;28;20245;-48
2021/11/06 05:28:25;;;;;;;8.07;6.28;;;;;;;;;;5033514;28;20222;-48
2021/11/06 05:30:51;;;;;;;10.10;7.20;;;;;;;;;;5033811;28;20551;-48
2021/11/06 05:33:17;;;;;;;8.10;6.10;;;;;;;;;;5020012;28;20199;-48
2021/11/06 05:35:43;;;;;;;7.22;6.20;;;;;;;;;;5031062;28;20207;-47
2021/11/06 05:38:09;;;;;;;8.45;6.10;;;;;;;;;;5031799;28;20473;-46
2021/11/06 05:40:35;;;;;;;8.02;6.10;;;;;;;;;;5024814;28;20164;-46
2021/11/06 05:43:02;;;;;;;7.57;6.60;;;;;;;;;;5034322;28;20168;-47
2021/11/06 05:45:28;;;;;;;10.27;6.85;;;;;;;;;;5034148;28;20214;-47
2021/11/06 05:47:54;;;;;;;10.35;6.63;;;;;;;;;;5034004;28;20472;-46
2021/11/06 05:50:20;;;;;;;9.20;6.68;;;;;;;;;;5030831;28;20184;-46
2021/11/06 05:52:46;;;;;;;9.27;6.90;;;;;;;;;;5034058;28;20182;-46
2021/11/06 05:55:13;;;;;;;8.90;6.72;;;;;;;;;;5032816;28;20195;-47
2021/11/06 05:57:39;;;;;;;11.73;7.55;;;;;;;;;;5033820;28;20193;-47
2021/11/06 06:00:07;;;;;;;11.88;6.57;;;;;;;;;;5033611;28;20199;-47
2021/11/06 06:02:33;;;;;;;9.00;6.68;;;;;;;;;;5023957;28;20265;-47
2021/11/06 06:04:59;;;;;;;9.07;7.20;;;;;;;;;;5023107;28;20565;-47
2021/11/06 06:07:25;;;;;;;9.23;7.22;;;;;;;;;;5026881;28;20191;-47
2021/11/06 06:09:51;;;;;;;8.77;6.53;;;;;;;;;;5025857;28;20220;-47
2021/11/06 06:12:17;;;;;;;9.18;6.78;;;;;;;;;;5034030;28;20199;-47
2021/11/06 06:14:43;;;;;;;10.45;6.85;;;;;;;;;;5033595;28;20207;-46
2021/11/06 06:17:09;;;;;;;9.25;6.57;;;;;;;;;;5034179;28;20175;-46
2021/11/06 06:19:35;;;;;;;11.13;7.43;;;;;;;;;;5026532;28;20226;-46
2021/11/06 06:22:01;;;;;;;8.00;6.75;;;;;;;;;;5020914;28;20173;-46
2021/11/06 06:24:27;;;;;;;12.15;7.10;;;;;;;;;;5033228;28;20547;-46
2021/11/06 06:26:53;;;;;;;10.43;7.65;;;;;;;;;;5020874;28;20204;-46
2021/11/06 06:29:19;;;;;;;9.68;7.80;;;;;;;;;;5032482;28;20195;-46
2021/11/06 06:31:45;;;;;;;9.70;7.55;;;;;;;;;;5033257;28;20176;-46
2021/11/06 06:34:11;;;;;;;9.30;7.28;;;;;;;;;;5031098;28;20261;-46
2021/11/06 06:36:37;;;;;;;10.90;6.95;;;;;;;;;;5033533;28;20172;-47
2021/11/06 06:39:03;;;;;;;8.10;6.45;;;;;;;;;;5033165;28;20510;-47
2021/11/06 06:41:29;;;;;;;7.90;6.53;;;;;;;;;;5032724;28;20208;-47
2021/11/06 06:43:55;;;;;;;8.50;6.85;;;;;;;;;;5033545;28;20171;-47
2021/11/06 06:46:21;;;;;;;7.80;6.57;;;;;;;;;;5033771;28;20188;-47
2021/11/06 06:48:47;;;;;;;7.80;6.60;;;;;;;;;;5032605;28;20526;-47
2021/11/06 06:51:15;;;;;;;7.50;6.20;;;;;;;;;;5022339;28;20183;-47
2021/11/06 06:53:42;;;;;;;6.78;6.07;;;;;;;;;;5027710;28;20172;-47
2021/11/06 06:56:08;;;;;;;8.68;6.85;;;;;;;;;;5025577;28;20195;-46
2021/11/06 06:58:34;;;;;;;8.85;6.45;;;;;;;;;;5026866;28;20275;-46
2021/11/06 07:01:00;;;;;;;7.25;5.97;;;;;;;;;;5039028;28;20176;-46
2021/11/06 07:03:26;;;;;;;8.52;6.47;;;;;;;;;;5028346;28;20188;-46
2021/11/06 07:05:52;;;;;;;7.32;6.40;;;;;;;;;;5038086;28;20261;-46
2021/11/06 07:08:20;;;;;;;7.88;6.85;;;;;;;;;;5033992;28;20183;-46
2021/11/06 07:10:50;;;;;;;9.35;6.18;;;;;;;;;;5019204;28;20250;-46
2021/11/06 07:13:24;;;;;;;7.25;6.18;;;;;;;;;;5035511;28;20208;-46
2021/11/06 07:15:50;;;;;;;7.40;6.10;;;;;;;;;;5024376;28;20204;-47
2021/11/06 07:18:16;;;;;;;6.97;5.93;;;;;;;;;;5026766;28;20177;-47
2021/11/06 07:20:42;;;;;;;7.82;6.60;;;;;;;;;;5017931;28;20476;-47
2021/11/06 07:23:08;;;;;;;6.50;5.53;;;;;;;;;;5025946;28;20658;-47
2021/11/06 07:25:34;;;;;;;7.57;5.90;;;;;;;;;;5037254;28;20184;-46
2021/11/06 07:28:01;;;;;;;8.38;6.30;;;;;;;;;;5035585;28;20470;-46
2021/11/06 07:30:27;;;;;;;8.75;6.97;;;;;;;;;;5037081;28;20175;-48
2021/11/06 07:32:53;;;;;;;8.07;6.22;;;;;;;;;;5034791;28;20349;-46
2021/11/06 07:35:20;;;;;;;10.32;6.80;;;;;;;;;;5034478;28;20203;-47
2021/11/06 07:37:46;;;;;;;3.35;3.00;;;;;;;;;;5034669;28;20237;-47
2021/11/06 07:40:12;;;;;;;2.72;2.30;;;;;;;;;;5028615;28;20179;-47
2021/11/06 07:42:40;;;;;;;3.50;2.28;;;;;;;;;;5021999;28;20175;-47
2021/11/06 07:45:08;;;;;;;3.63;2.72;;;;;;;;;;5036670;28;20164;-47
2021/11/06 07:47:34;;;;;;;3.28;1.98;;;;;;;;;;5036317;28;20265;-46
2021/11/06 07:50:00;;;;;;;8.20;2.42;;;;;;;;;;5036794;28;20180;-46
2021/11/06 07:52:26;;;;;;;3.65;2.63;;;;;;;;;;5036413;28;20168;-47
2021/11/06 07:54:53;;;;;;;3.42;2.47;;;;;;;;;;5035852;28;20250;-47
2021/11/06 07:57:19;;;;;;;6.90;2.60;;;;;;;;;;5036550;28;20190;-48
2021/11/06 07:59:45;;;;;;;7.28;2.50;;;;;;;;;;5036440;28;20202;-47
2021/11/06 08:02:11;;;;;;;5.38;2.65;;;;;;;;;;5036504;28;20564;-47
2021/11/06 08:04:37;;;;;;;6.68;2.70;;;;;;;;;;5035718;28;20192;-47
2021/11/06 08:07:03;;;;;;;6.70;2.35;;;;;;;;;;5036502;28;20443;-47
2021/11/06 08:09:29;;;;;;;6.93;2.67;;;;;;;;;;5036440;28;20263;-47
2021/11/06 08:11:56;;;;;;;5.28;2.92;;;;;;;;;;5036164;28;20270;-47
2021/11/06 08:14:22;;;;;;;3.70;2.50;;;;;;;;;;5035874;28;20283;-47
2021/11/06 08:16:49;;;;;;;6.32;1.92;;;;;;;;;;5036394;28;20522;-47
2021/11/06 08:19:16;;;;;;;3.83;2.05;;;;;;;;;;5036031;28;20218;-46
2021/11/06 08:21:42;;;;;;;3.05;2.22;;;;;;;;;;5036108;28;20455;-47
2021/11/06 08:24:08;;;;;;;3.38;2.00;;;;;;;;;;5035335;28;20180;-47
2021/11/06 08:26:34;;;;;;;4.80;2.13;;;;;;;;;;5024363;28;20204;-47
2021/11/06 08:29:00;;;;;;;3.15;2.28;;;;;;;;;;5032248;28;20184;-47
2021/11/06 08:31:26;;;;;;;2.80;2.30;;;;;;;;;;5036395;28;20435;-47
2021/11/06 08:33:53;;;;;;;3.80;2.20;;;;;;;;;;5034755;28;20321;-47
2021/11/06 08:36:19;;;;;;;2.13;1.80;;;;;;;;;;5035977;28;20183;-46
2021/11/06 08:38:45;;;;;;;3.28;2.13;;;;;;;;;;5035686;28;20180;-47
2021/11/06 08:41:11;;;;;;;3.42;1.98;;;;;;;;;;5033724;28;20204;-47
2021/11/06 08:43:37;;;;;;;2.22;2.00;;;;;;;;;;5035283;28;20195;-48
2021/11/06 08:46:04;;;;;;;3.50;2.30;;;;;;;;;;5035095;28;20275;-47
2021/11/06 08:48:31;;;;;;;7.13;2.30;;;;;;;;;;5035241;28;20258;-47
2021/11/06 08:50:58;;;;;;;5.15;1.77;;;;;;;;;;5035800;28;20172;-47
2021/11/06 08:53:24;;;;;;;2.53;1.73;;;;;;;;;;5034494;28;20180;-47
2021/11/06 08:55:50;;;;;;;3.40;1.90;;;;;;;;;;5035589;28;20229;-48
2021/11/06 08:58:16;;;;;;;8.45;3.00;;;;;;;;;;5035217;28;20188;-47
2021/11/06 09:00:44;;;;;;;10.27;4.10;;;;;;;;;;5035588;28;20250;-46
2021/11/06 09:03:16;;;;;;;12.95;4.57;;;;;;;;;;5034253;28;20654;-47
2021/11/06 09:05:49;;;;;;;9.93;3.45;;;;;;;;;;5035397;28;20167;-48
2021/11/06 09:08:15;;;;;;;11.95;4.25;;;;;;;;;;5025071;28;20275;-47
2021/11/06 09:10:41;;;;;;;11.40;3.53;;;;;;;;;;5020620;28;20239;-47
2021/11/06 09:13:07;;;;;;;14.18;3.42;;;;;;;;;;5023691;28;20181;-47
2021/11/06 09:15:33;;;;;;;8.00;2.90;;;;;;;;;;5034912;28;20192;-47
2021/11/06 09:17:59;;;;;;;8.13;3.17;;;;;;;;;;5035020;28;20176;-47
2021/11/06 09:20:25;;;;;;;11.38;3.20;;;;;;;;;;5035546;28;20243;-47
2021/11/06 09:22:54;;;;;;;7.30;2.60;;;;;;;;;;5026543;28;20255;-47
2021/11/06 09:25:20;;;;;;;7.03;3.03;;;;;;;;;;5035114;28;20170;-47
2021/11/06 09:27:46;;;;;;;6.60;3.15;;;;;;;;;;5034904;28;20199;-47
2021/11/06 09:30:13;;;;;;;8.88;3.22;;;;;;;;;;5034791;28;20172;-47
2021/11/06 09:32:39;;;;;;;9.60;3.30;;;;;;;;;;5033990;28;20502;-47
2021/11/06 09:35:05;;;;;;;7.93;3.35;;;;;;;;;;5034502;28;20192;-47
2021/11/06 09:37:31;;;;;;;8.68;3.58;;;;;;;;;;5019742;28;20183;-47
2021/11/06 09:39:58;;;;;;;8.70;2.83;;;;;;;;;;5035011;28;20176;-47
2021/11/06 09:42:24;;;;;;;6.18;3.08;;;;;;;;;;5034877;28;20251;-47
2021/11/06 09:44:50;;;;;;;9.45;3.22;;;;;;;;;;5033777;28;20552;-47
2021/11/06 09:47:17;;;;;;;7.88;2.95;;;;;;;;;;5034106;28;20271;-47
2021/11/06 09:49:43;;;;;;;6.57;2.67;;;;;;;;;;5034988;28;20179;-47
2021/11/06 09:52:11;;;;;;;7.05;3.25;;;;;;;;;;5032892;28;20511;-47
2021/11/06 09:54:38;;;;;;;6.18;2.83;;;;;;;;;;5030818;28;20310;-47
2021/11/06 09:57:04;;;;;;;6.10;2.60;;;;;;;;;;5034516;28;20176;-47
2021/11/06 09:59:31;;;;;;;7.90;2.80;;;;;;;;;;5034480;28;20172;-47
2021/11/06 10:01:57;;;;;;;4.28;2.47;;;;;;;;;;5034659;28;20247;-46
2021/11/06 10:04:25;;;;;;;6.20;2.70;;;;;;;;;;5033507;28;20257;-47
2021/11/06 10:06:51;;;;;;;5.38;2.40;;;;;;;;;;5034356;28;20186;-47
2021/11/06 10:09:18;;;;;;;6.80;2.63;;;;;;;;;;5034121;28;20206;-47
2021/11/06 10:11:45;;;;;;;6.10;2.20;;;;;;;;;;5034565;28;20249;-47
2021/11/06 10:14:15;;;;;;;4.20;2.65;;;;;;;;;;5033142;28;20868;-47
2021/11/06 10:16:49;;;;;;;4.93;2.08;;;;;;;;;;5034589;28;20164;-47
2021/11/06 10:19:17;;;;;;;4.68;2.20;;;;;;;;;;5034479;28;20194;-47
2021/11/06 10:22:03;;;;;;;4.68;2.63;;;;;;;;;;5034513;28;20168;-47
2021/11/06 10:24:44;;;;;;;4.90;2.38;;;;;;;;;;5048388;28;20191;-48
2021/11/06 10:27:27;;;;;;;6.63;2.70;;;;;;;;;;5034824;28;20214;-47
2021/11/06 10:30:02;;;;;;;4.55;2.42;;;;;;;;;;5054521;28;20259;-47
2021/11/06 10:32:28;;;;;;;4.03;1.98;;;;;;;;;;5050601;28;20476;-47
2021/11/06 10:34:54;;;;;;;3.50;2.35;;;;;;;;;;5033070;28;20207;-47
2021/11/06 10:37:21;;;;;;;5.15;2.38;;;;;;;;;;5034118;28;20285;-47
2021/11/06 10:40:13;;;;;;;5.32;2.58;;;;;;;;;;5034417;28;20160;-47
2021/11/06 10:42:49;;;;;;;4.47;2.05;;;;;;;;;;5032385;28;20192;-47
2021/11/06 10:45:16;;;;;;;5.38;2.53;;;;;;;;;;5018072;28;20230;-47
2021/11/06 10:47:49;;;;;;;3.13;2.13;;;;;;;;;;5037004;28;20188;-47
2021/11/06 10:50:15;;;;;;;4.85;2.08;;;;;;;;;;5038047;28;20263;-47
2021/11/06 10:52:46;;;;;;;3.78;2.47;;;;;;;;;;5037917;28;20175;-47
2021/11/06 10:55:12;;;;;;;3.35;2.20;;;;;;;;;;5036973;28;20211;-47
2021/11/06 10:57:38;;;;;;;2.97;2.03;;;;;;;;;;5037634;28;20217;-47
2021/11/06 11:00:08;;;;;;;3.40;2.25;;;;;;;;;;5037432;28;20188;-47
2021/11/06 11:02:34;;;;;;;3.45;2.20;;;;;;;;;;5037523;28;20234;-47
2021/11/06 11:05:00;;;;;;;3.15;2.10;;;;;;;;;;5036863;28;20578;-47
2021/11/06 11:07:25;;;;;;;4.82;2.17;;;;;;;;;;5037528;28;20188;-47
2021/11/06 11:09:51;;;;;;;2.97;2.13;;;;;;;;;;5037908;28;20570;-47
2021/11/06 11:12:19;;;;;;;3.65;2.05;;;;;;;;;;5037299;28;20342;-47
2021/11/06 11:14:52;;;;;;;4.82;1.98;;;;;;;;;;5036251;28;20760;-47
2021/11/06 11:17:19;;;;;;;4.63;2.30;;;;;;;;;;5030910;28;20177;-47
2021/11/06 11:19:47;;;;;;;2.33;2.00;;;;;;;;;;5037749;28;20168;-47
2021/11/06 11:22:31;;;;;;;3.35;2.08;;;;;;;;;;5037765;28;20172;-47
2021/11/06 11:24:58;;;;;;;3.40;1.92;;;;;;;;;;5036468;28;20207;-47
2021/11/06 11:27:25;;;;;;;4.25;2.08;;;;;;;;;;5036672;28;20211;-47
2021/11/06 11:29:51;;;;;;;2.90;1.88;;;;;;;;;;5037836;28;20190;-47
2021/11/06 11:32:17;;;;;;;4.18;2.20;;;;;;;;;;5028201;28;20188;-46
2021/11/06 11:34:44;;;;;;;2.80;1.98;;;;;;;;;;5036084;28;20214;-46
2021/11/06 11:37:11;;;;;;;4.85;2.13;;;;;;;;;;5037301;28;20176;-47
2021/11/06 11:39:37;;;;;;;2.40;2.00;;;;;;;;;;5037329;28;20258;-47
2021/11/06 11:42:22;;;;;;;3.35;2.20;;;;;;;;;;5037032;28;20743;-48
2021/11/06 11:44:54;;;;;;;2.55;1.83;;;;;;;;;;5035549;28;20179;-47
2021/11/06 11:47:39;;;;;;;2.65;1.85;;;;;;;;;;5034948;28;20249;-47
2021/11/06 11:50:11;;;;;;;1.90;1.70;;;;;;;;;;5037329;28;20538;-47
2021/11/06 11:52:37;;;;;;;2.75;1.90;;;;;;;;;;5037051;28;20251;-47
2021/11/06 11:55:03;;;;;;;3.10;1.70;;;;;;;;;;5034980;28;20508;-47
2021/11/06 11:57:30;;;;;;;2.53;2.00;;;;;;;;;;5036521;28;20171;-46
2021/11/06 11:59:57;;;;;;;2.75;2.10;;;;;;;;;;5036742;28;20190;-47
2021/11/06 12:02:24;;;;;;;3.90;1.83;;;;;;;;;;5036168;28;20214;-47
2021/11/06 12:05:09;;;;;;;1.85;1.65;;;;;;;;;;5035617;28;20183;-47
2021/11/06 12:07:35;;;;;;;2.03;1.83;;;;;;;;;;5021729;28;20180;-47
2021/11/06 12:10:20;;;;;;;2.92;1.98;;;;;;;;;;5036379;28;20234;-46
2021/11/06 12:12:46;;;;;;;2.42;1.90;;;;;;;;;;5035977;28;20476;-47
2021/11/06 12:15:12;;;;;;;2.67;1.83;;;;;;;;;;5035737;28;20637;-47
2021/11/06 12:17:38;;;;;;;2.85;1.88;;;;;;;;;;5036385;28;20172;-46
2021/11/06 12:20:22;;;;;;;2.15;1.90;;;;;;;;;;5035959;28;20242;-48
2021/11/06 12:22:48;;;;;;;3.33;1.85;;;;;;;;;;5035851;28;20168;-47
2021/11/06 12:25:16;;;;;;;2.13;1.75;;;;;;;;;;5035827;28;20735;-47
2021/11/06 12:28:03;;;;;;;3.63;1.80;;;;;;;;;;5036130;28;20641;-47
2021/11/06 12:30:31;;;;;;;2.28;1.75;;;;;;;;;;5035953;28;20436;-47
2021/11/06 12:32:58;;;;;;;2.67;1.55;;;;;;;;;;5035258;28;20465;-46
2021/11/06 12:35:28;;;;;;;2.15;1.70;;;;;;;;;;5022956;28;20196;-47
2021/11/06 12:37:58;;;;;;;1.98;1.60;;;;;;;;;;5034375;28;20673;-47
2021/11/06 12:40:27;;;;;;;4.00;1.63;;;;;;;;;;5036218;28;20199;-47
2021/11/06 12:43:04;;;;;;;2.20;2.00;;;;;;;;;;5035257;28;20198;-47
2021/11/06 12:45:30;;;;;;;2.38;2.00;;;;;;;;;;5035821;28;20171;-46
2021/11/06 12:48:10;;;;;;;1.90;1.70;;;;;;;;;;5035295;28;20547;-47
2021/11/06 12:50:37;;;;;;;2.13;1.50;;;;;;;;;;5035959;28;20168;-47
2021/11/06 12:53:03;;;;;;;1.75;1.63;;;;;;;;;;5034606;28;20458;-47
2021/11/06 12:55:30;;;;;;;2.17;1.75;;;;;;;;;;5033873;28;20207;-47
2021/11/06 12:57:56;;;;;;;1.92;1.70;;;;;;;;;;5035645;28;20168;-47
2021/11/06 13:00:27;;;;;;;1.67;1.55;;;;;;;;;;5035635;28;20195;-47
2021/11/06 13:02:54;;;;;;;2.58;1.65;;;;;;;;;;5034655;28;20241;-47
2021/11/06 13:05:20;;;;;;;1.63;1.52;;;;;;;;;;5035261;28;20193;-47
2021/11/06 13:07:47;;;;;;;1.58;1.42;;;;;;;;;;5034246;28;20666;-47
2021/11/06 13:10:18;;;;;;;2.10;1.60;;;;;;;;;;5034142;28;20251;-47
2021/11/06 13:12:45;;;;;;;2.55;1.63;;;;;;;;;;5035371;28;20788;-47
2021/11/06 13:15:10;;;;;;;1.40;1.30;;;;;;;;;;5034828;28;20278;-47
2021/11/06 13:17:38;;;;;;;2.55;1.50;;;;;;;;;;5033635;28;20267;-48
2021/11/06 13:20:08;;;;;;;2.03;1.70;;;;;;;;;;5033037;28;20566;-47
2021/11/06 13:22:34;;;;;;;3.28;1.80;;;;;;;;;;5035493;28;20176;-47
2021/11/06 13:25:14;;;;;;;1.88;1.63;;;;;;;;;;5034181;28;20279;-46
2021/11/06 13:27:40;;;;;;;2.47;1.35;;;;;;;;;;5033510;28;20198;-47
2021/11/06 13:30:22;;;;;;;2.95;1.52;;;;;;;;;;5034659;28;20183;-47
2021/11/06 13:32:54;;;;;;;1.88;1.67;;;;;;;;;;5034251;28;20559;-47
2021/11/06 13:35:21;;;;;;;3.03;1.70;;;;;;;;;;5032551;28;20192;-47
2021/11/06 13:38:07;;;;;;;2.80;1.70;;;;;;;;;;5034771;28;20226;-47
2021/11/06 13:40:43;;;;;;;1.45;1.35;;;;;;;;;;5033947;28;20551;-47
2021/11/06 13:43:13;;;;;;;2.08;1.50;;;;;;;;;;5032612;28;20225;-47
2021/11/06 13:45:39;;;;;;;1.63;1.52;;;;;;;;;;5032295;28;20192;-47
2021/11/06 13:48:05;;;;;;;1.83;1.52;;;;;;;;;;5033765;28;20186;-47
2021/11/06 13:50:31;;;;;;;3.25;1.55;;;;;;;;;;5033794;28;20221;-47
2021/11/06 13:52:58;;;;;;;2.17;1.50;;;;;;;;;;5033074;28;20179;-47
2021/11/06 13:55:24;;;;;;;3.53;1.70;;;;;;;;;;5033462;28;20223;-47
2021/11/06 13:57:50;;;;;;;3.20;2.10;;;;;;;;;;5034143;28;20593;-48
2021/11/06 14:00:19;;;;;;;2.38;1.60;;;;;;;;;;5033944;28;20210;-47
2021/11/06 14:02:46;;;;;;;3.95;1.80;;;;;;;;;;5021415;28;20188;-47
2021/11/06 14:05:21;;;;;;;2.05;1.88;;;;;;;;;;5027362;28;20255;-47
2021/11/06 14:07:52;;;;;;;3.25;1.75;;;;;;;;;;5026566;28;20199;-47
2021/11/06 14:10:25;;;;;;;3.53;1.90;;;;;;;;;;5034552;28;20175;-47
2021/11/06 14:12:51;;;;;;;2.17;1.85;;;;;;;;;;5033850;28;20515;-47
2021/11/06 14:15:23;;;;;;;2.42;1.80;;;;;;;;;;5034344;28;20621;-48
2021/11/06 14:17:54;;;;;;;1.73;1.50;;;;;;;;;;5034075;28;20172;-47
2021/11/06 14:20:37;;;;;;;1.70;1.60;;;;;;;;;;5041189;28;20168;-47
2021/11/06 14:23:04;;;;;;;2.40;1.60;;;;;;;;;;5040378;28;20159;-47
2021/11/06 14:25:48;;;;;;;1.75;1.60;;;;;;;;;;5040496;28;20190;-47
2021/11/06 14:28:16;;;;;;;11.27;1.50;;;;;;;;;;5025633;28;20179;-47
2021/11/06 14:30:51;;;;;;;1.83;1.48;;;;;;;;;;5040755;28;20189;-47
2021/11/06 14:33:29;;;;;;;1.63;1.45;;;;;;;;;;5040530;28;20297;-47
2021/11/06 14:36:07;;;;;;;1.40;1.30;;;;;;;;;;5021075;28;20228;-47
2021/11/06 14:38:56;;;;;;;2.05;1.80;;;;;;;;;;5033179;28;20229;-47
2021/11/06 14:41:30;;;;;;;2.45;1.40;;;;;;;;;;5031766;28;20195;-47
2021/11/06 14:44:04;;;;;;;1.60;1.50;;;;;;;;;;5040314;28;20172;-46